Dundee, Michigan
Current Conditions -  °F | °C
As of 5:34 PM on Sunday 23 Nov 2014 (Local Time) from KTTF Reporting Station
Drizzle Drizzle  
Wind Chill: 45°   Ceiling: 5500
Heat Index: 48°   Visibility: 10mi
Dew Point: 41°   Wind: 7mph
Humidity: 76%   Direction: 110°ESE
Pressure: 29.62"   Gusts: NA
Location:  41.96°N, 83.66°W
Report Text: KTTF 232234Z AUTO 11006KT 10SM -DZ BKN055 OVC065 09/05 A2962 RMK AO2
Loading
Personal Weather Stations






























Interactive Weather Map New forecast layout! Learn more

10-Day Weather Forecast

Advertisements
Track Severe Weather on mobile